CheckWX is a tool to help pilots better visualize weather data.  It is not intended as a substitute for an official pre-flight weather briefing.

01:54:50 UTC

TRPG TAF
John A. Osborne
Gerald's Park
TAF TRPG 182100Z 1900/1924 09009KT 9999 SCT019

Mar-19@
00:00 UTC

Mar-19 @ 00:00 UTC

Mar-20@
00:00 UTC

Mar-20 @ 00:00 UTC

TAF TRPG 182100Z 1900/1924 09009KT 9999 SCT019
Wind
  • 090° at 9 KTS
Cloud Levels
  • Scattered at 1,900' AGL